weather.gov     
National Weather Service

Terminal Aerodrome Forecast
NWS Homepage
This page is being discontinued on March 12, 2014.
The same data is available at this site. Please update your bookmarks.
Thank you, and we apologize for the inconvenience.
Please send an email to SR-SRH.Webmaster@noaa.gov with any concerns.


Current Version
Previous Version:    01  02  03  04  05  06  07  08  09  10  11  12  13  14  15  16  17  18  19  20  21  22  23  24  25  26  27  28  29  
[Printable]
460
FTUS44 KHUN 252322
TAFMSL
TAF
KMSL 252322Z 2600/2624 25010KT P6SM VCSH BKN050
     FM260100 27010KT 5SM -RA BR OVC040
     FM260500 29010KT 5SM -RA BR OVC030
     FM260900 32015KT 5SM -RASN BR OVC015
     FM261100 32015G25KT 5SM -SN BR OVC020
     FM261400 32010G25KT P6SM OVC030
     FM261900 32010G20KT P6SM BKN050=


460
FTUS44 KHUN 252322
TAFMSL
TAF
KMSL 252322Z 2600/2624 25010KT P6SM VCSH BKN050
     FM260100 27010KT 5SM -RA BR OVC040
     FM260500 29010KT 5SM -RA BR OVC030
     FM260900 32015KT 5SM -RASN BR OVC015
     FM261100 32015G25KT 5SM -SN BR OVC020
     FM261400 32010G25KT P6SM OVC030
     FM261900 32010G20KT P6SM BKN050=




U.S. Dept. of Commerce
NOAA National Weather Service
1325 East West Highway
Silver Spring, MD 20910
E-mail: w-nws.webmaster@noaa.gov
Page last modified: May 16, 2007
NATIONAL WEATHER SERVICE: for Safety, for Work, for Fun - FOR LIFE